CheckWX is a tool to help pilots better visualize weather data.  It is not intended as a substitute for an official pre-flight weather briefing.

05:19:09 UTC

KHNB TAF
Huntingburg Airport
Huntingburg, Indiana, USA
KHNB 240132Z 2402/2424 12012KT P6SM -RA OVC007 FM240500 12008KT 4SM BR SCT004 OVC006 FM241200 15005KT 2SM BR VCSH BKN003 OVC007 FM241500 20007KT 5SM BR BKN004 OVC008 FM241900 23009KT 6SM -RA BKN007 OVC013

Jan-24@
02:00 UTC

Jan-24 @ 02:00 UTC

Jan-24@
05:00 UTC

Jan-24 @ 05:00 UTC

KHNB 240132Z 2402/2424 12012KT P6SM -RA OVC007

Expired

Wind
  • 120° at 12 KTS
Conditions
Light Rain
Cloud Levels
  • Overcast at 700' AGL

Jan-24@
05:00 UTC

Jan-24 @ 05:00 UTC

Jan-24@
12:00 UTC

Jan-24 @ 12:00 UTC

FM240500 12008KT 4SM BR SCT004 OVC006

From

From Standard forecast or significant change

Wind
  • 120° at 8 KTS
Conditions
Mist
Cloud Levels
  • Scattered at 400' AGL
  • Overcast at 600' AGL

Jan-24@
12:00 UTC

Jan-24 @ 12:00 UTC

Jan-24@
15:00 UTC

Jan-24 @ 15:00 UTC

FM241200 15005KT 2SM BR VCSH BKN003 OVC007

From

From Standard forecast or significant change

Wind
  • 150° at 5 KTS
Conditions
Mist
Cloud Levels
  • Broken at 300' AGL
  • Overcast at 700' AGL

Jan-24@
15:00 UTC

Jan-24 @ 15:00 UTC

Jan-24@
19:00 UTC

Jan-24 @ 19:00 UTC

FM241500 20007KT 5SM BR BKN004 OVC008

From

From Standard forecast or significant change

Wind
  • 200° at 7 KTS
Conditions
Mist
Cloud Levels
  • Broken at 400' AGL
  • Overcast at 800' AGL

Jan-24@
19:00 UTC

Jan-24 @ 19:00 UTC

Jan-25@
00:00 UTC

Jan-25 @ 00:00 UTC

FM241900 23009KT 6SM -RA BKN007 OVC013

From

From Standard forecast or significant change

Wind
  • 230° at 9 KTS
Conditions
Light Rain
Cloud Levels
  • Broken at 700' AGL
  • Overcast at 1,300' AGL